Wagner, Minnesota
Current Conditions -  °F | °C
As of 1:54 AM on Saturday 20 Dec 2014 (Local Time) from K04W Reporting Station
Overcast Overcast  
Wind Chill: 21°   Ceiling: 1000
Heat Index: 28°   Visibility: 7mi
Dew Point: 27°   Wind: 7mph
Humidity: 93%   Direction: 160°SSE
Pressure: 30.14"   Gusts: NA
Location:  46.2114°N, 92.9743°W
Report Text: K04W 200754Z AUTO 16006KT 7SM OVC010 M02/M03 A3014 RMK AO2
Loading
Personal Weather Stations






























Interactive Weather Map New forecast layout! Learn more

10-Day Weather Forecast

Advertisements
Track Severe Weather on mobile